Time;durP1;ratioP1;P1;durP2;ratioP2;P2;SDS_P1;SDS_P2;PMS_P1;PMS_P2;Temp;Humidity;BMP_temperature;BMP_pressure;BME280_temperature;BME280_humidity;BME280_pressure;Samples;Min_cycle;Max_cycle;Signal;HPM_P1;HPM_P2
2023/01/08 00:00:44;;;;;;;10.68;7.20;;;6.90;71.40;;;;;;5073740;28;20074;-77
2023/01/08 00:03:10;;;;;;;10.63;6.78;;;6.90;71.20;;;;;;5073586;28;20029;-77
2023/01/08 00:05:36;;;;;;;10.98;6.65;;;6.80;71.20;;;;;;5073643;28;20415;-76
2023/01/08 00:08:02;;;;;;;8.75;6.65;;;6.80;71.40;;;;;;5073378;28;20050;-76
2023/01/08 00:10:27;;;;;;;9.48;6.28;;;6.90;71.40;;;;;;5073588;28;20070;-76
2023/01/08 00:12:54;;;;;;;11.23;7.88;;;6.90;71.60;;;;;;5073591;28;20025;-76
2023/01/08 00:15:20;;;;;;;10.88;7.50;;;6.90;71.60;;;;;;5073310;28;20428;-76
2023/01/08 00:17:46;;;;;;;9.18;6.75;;;6.80;71.70;;;;;;5072001;28;20029;-76
2023/01/08 00:20:11;;;;;;;10.73;7.00;;;6.80;71.60;;;;;;5073387;28;20032;-76
2023/01/08 00:22:37;;;;;;;9.30;6.65;;;6.80;71.70;;;;;;5073309;28;20472;-76
2023/01/08 00:25:03;;;;;;;11.13;7.50;;;6.80;71.70;;;;;;5073000;28;20027;-76
2023/01/08 00:27:28;;;;;;;9.23;6.28;;;6.70;71.80;;;;;;5073088;28;20074;-76
2023/01/08 00:29:54;;;;;;;9.90;6.47;;;6.70;72.00;;;;;;5073020;28;20638;-76
2023/01/08 00:32:19;;;;;;;12.60;7.75;;;6.80;71.60;;;;;;5073062;28;20472;-75
2023/01/08 00:34:45;;;;;;;11.75;7.05;;;6.70;71.60;;;;;;5055023;28;20021;-77
2023/01/08 00:37:11;;;;;;;13.20;7.05;;;6.70;71.50;;;;;;5072527;28;20092;-76
2023/01/08 00:39:36;;;;;;;11.02;7.22;;;6.60;71.70;;;;;;5073049;28;20067;-76
2023/01/08 00:42:02;;;;;;;12.18;8.32;;;6.60;71.90;;;;;;5073093;28;20407;-76
2023/01/08 00:44:27;;;;;;;12.85;7.30;;;6.50;72.10;;;;;;5072891;28;20437;-75
2023/01/08 00:46:53;;;;;;;10.40;7.20;;;6.40;72.20;;;;;;5073103;28;20024;-74
2023/01/08 00:49:18;;;;;;;10.90;7.20;;;6.40;72.70;;;;;;5072919;28;20108;-74
2023/01/08 00:51:44;;;;;;;11.05;7.50;;;6.40;72.90;;;;;;5034506;28;20441;-74
2023/01/08 00:54:10;;;;;;;10.55;7.25;;;6.40;73.00;;;;;;4990961;28;20042;-74
2023/01/08 00:56:36;;;;;;;12.13;7.00;;;6.30;73.00;;;;;;4990335;28;20027;-78
2023/01/08 00:59:02;;;;;;;10.35;6.63;;;6.30;72.80;;;;;;4990727;28;20080;-75
2023/01/08 01:01:27;;;;;;;13.35;7.60;;;6.20;72.70;;;;;;4990657;28;20049;-74
2023/01/08 01:03:53;;;;;;;9.57;6.40;;;6.20;72.50;;;;;;4973193;28;20026;-76
2023/01/08 01:06:18;;;;;;;12.40;6.85;;;6.20;72.50;;;;;;4990444;28;20065;-76
2023/01/08 01:08:44;;;;;;;8.88;5.78;;;6.10;72.70;;;;;;4990690;28;20114;-75
2023/01/08 01:11:16;;;;;;;8.98;5.97;;;6.00;72.50;;;;;;4990456;28;20019;-74
2023/01/08 01:13:42;;;;;;;9.30;5.95;;;6.10;72.60;;;;;;4990722;28;20160;-80
2023/01/08 01:16:07;;;;;;;8.98;5.85;;;6.10;72.50;;;;;;4990530;28;20062;-77
2023/01/08 01:18:33;;;;;;;7.43;4.97;;;6.10;72.20;;;;;;4990317;28;20425;-78
2023/01/08 01:20:59;;;;;;;8.35;5.57;;;6.10;72.00;;;;;;4990443;28;20030;-79
2023/01/08 01:23:24;;;;;;;9.00;6.28;;;6.10;71.90;;;;;;4990470;28;20022;-79
2023/01/08 01:25:50;;;;;;;8.48;5.70;;;6.10;71.40;;;;;;4990724;28;20026;-79
2023/01/08 01:28:16;;;;;;;9.07;5.40;;;6.10;71.20;;;;;;4990400;28;20019;-79
2023/01/08 01:30:41;;;;;;;9.43;6.13;;;6.10;71.30;;;;;;4990564;28;20103;-78
2023/01/08 01:33:07;;;;;;;12.18;6.82;;;6.10;71.00;;;;;;4990366;28;20057;-77
2023/01/08 01:35:32;;;;;;;9.98;6.25;;;6.00;70.90;;;;;;4990456;28;20030;-79
2023/01/08 01:37:58;;;;;;;8.52;6.00;;;6.00;70.80;;;;;;4972717;28;20034;-78
2023/01/08 01:40:23;;;;;;;8.40;6.38;;;5.90;70.90;;;;;;4990443;28;20408;-78
2023/01/08 01:42:49;;;;;;;8.02;5.50;;;5.90;71.00;;;;;;4990338;28;20023;-79
2023/01/08 01:45:25;;;;;;;10.27;6.05;;;6.00;70.70;;;;;;4990239;28;20049;-78
2023/01/08 01:48:01;;;;;;;9.73;6.07;;;5.90;71.00;;;;;;4991390;28;20025;-78
2023/01/08 01:50:28;;;;;;;8.65;5.82;;;5.90;71.00;;;;;;4993759;28;20034;-77
2023/01/08 01:53:27;;;;;;;8.98;5.70;;;5.90;70.80;;;;;;4993505;28;20494;-74
2023/01/08 01:55:53;;;;;;;9.00;5.85;;;5.90;70.90;;;;;;4993363;28;20109;-74
2023/01/08 01:58:25;;;;;;;7.82;5.68;;;5.80;70.90;;;;;;4993479;28;20114;-74
2023/01/08 02:00:52;;;;;;;9.55;5.53;;;5.90;70.90;;;;;;4976119;28;20390;-74
2023/01/08 02:03:22;;;;;;;9.55;5.97;;;5.90;71.00;;;;;;4993209;28;20022;-74
2023/01/08 02:06:11;;;;;;;10.13;5.60;;;5.80;70.80;;;;;;4993427;28;20060;-74
2023/01/08 02:09:02;;;;;;;8.52;5.40;;;5.80;71.00;;;;;;4993311;28;20531;-78
2023/01/08 02:12:15;;;;;;;8.98;5.70;;;5.80;70.80;;;;;;4993300;28;20507;-75
2023/01/08 02:14:52;;;;;;;6.07;5.03;;;5.80;70.90;;;;;;4993178;28;20071;-74
2023/01/08 02:17:29;;;;;;;8.70;5.00;;;5.90;70.80;;;;;;4993110;28;20049;-75
2023/01/08 02:20:02;;;;;;;6.68;4.43;;;5.90;70.60;;;;;;4993196;28;20074;-74
2023/01/08 02:22:39;;;;;;;7.30;4.65;;;5.90;70.50;;;;;;4992985;28;20120;-74
2023/01/08 02:25:27;;;;;;;6.05;4.75;;;5.90;70.40;;;;;;4993028;28;20032;-74
2023/01/08 02:27:54;;;;;;;4.80;3.42;;;5.90;70.20;;;;;;4992974;28;20544;-74
2023/01/08 02:30:20;;;;;;;7.57;3.67;;;6.00;70.50;;;;;;4992994;28;20026;-77
2023/01/08 02:32:46;;;;;;;7.10;3.78;;;6.00;70.70;;;;;;4993058;28;20023;-77
2023/01/08 02:35:11;;;;;;;3.38;2.63;;;6.00;71.40;;;;;;4993077;28;20029;-77
2023/01/08 02:37:38;;;;;;;6.00;3.40;;;6.10;70.70;;;;;;4992909;28;20035;-75
2023/01/08 02:40:29;;;;;;;4.20;2.92;;;6.10;70.30;;;;;;4992914;28;20034;-76
2023/01/08 02:43:15;;;;;;;5.38;3.35;;;6.20;69.80;;;;;;4993063;28;20038;-75
2023/01/08 02:45:47;;;;;;;6.13;2.95;;;6.20;69.60;;;;;;4975322;28;20117;-75
2023/01/08 02:48:39;;;;;;;5.05;3.22;;;6.20;69.50;;;;;;4992649;28;20105;-75
2023/01/08 02:51:23;;;;;;;6.13;3.15;;;6.20;69.70;;;;;;4992771;28;20029;-75
2023/01/08 02:53:53;;;;;;;4.20;3.15;;;6.30;69.60;;;;;;4994291;28;20039;-75
2023/01/08 02:56:23;;;;;;;4.32;2.67;;;6.30;69.50;;;;;;4994356;28;20049;-75
2023/01/08 02:58:51;;;;;;;3.17;2.47;;;6.40;69.40;;;;;;4992226;28;20070;-76
2023/01/08 03:01:19;;;;;;;3.60;2.53;;;6.40;69.10;;;;;;4992115;28;20026;-75
2023/01/08 03:04:08;;;;;;;3.67;2.30;;;6.40;68.80;;;;;;4992532;28;20030;-75
2023/01/08 03:06:34;;;;;;;3.50;2.22;;;6.50;68.60;;;;;;4992409;28;20070;-75
2023/01/08 03:09:00;;;;;;;4.15;2.60;;;6.50;68.20;;;;;;4992501;28;20026;-75
2023/01/08 03:11:30;;;;;;;3.70;2.72;;;6.40;68.30;;;;;;4992352;28;20023;-76
2023/01/08 03:14:02;;;;;;;4.50;2.67;;;6.40;68.60;;;;;;4992402;28;20110;-75
2023/01/08 03:16:43;;;;;;;4.57;3.38;;;6.30;68.80;;;;;;4992304;28;20023;-75
2023/01/08 03:19:22;;;;;;;6.57;4.10;;;6.30;68.60;;;;;;4992257;28;20093;-75
2023/01/08 03:21:50;;;;;;;5.60;3.60;;;6.20;68.90;;;;;;4992337;28;20019;-75
2023/01/08 03:24:21;;;;;;;4.20;3.25;;;6.20;69.40;;;;;;4992031;28;20055;-74
2023/01/08 03:26:49;;;;;;;3.70;2.22;;;6.20;69.70;;;;;;4992307;28;20144;-74
2023/01/08 03:29:17;;;;;;;5.55;2.50;;;6.20;69.40;;;;;;4974800;28;20026;-74
2023/01/08 03:31:45;;;;;;;3.58;2.55;;;6.20;69.20;;;;;;4992213;28;20041;-74
2023/01/08 03:34:13;;;;;;;4.80;2.60;;;6.20;69.10;;;;;;4992042;28;20022;-74
2023/01/08 03:36:42;;;;;;;4.90;2.45;;;6.30;69.10;;;;;;4992045;28;20419;-74
2023/01/08 03:39:28;;;;;;;3.28;2.38;;;6.30;69.00;;;;;;4974481;28;20038;-74
2023/01/08 03:41:58;;;;;;;2.42;2.15;;;6.40;68.80;;;;;;4990740;28;20029;-74
2023/01/08 03:44:23;;;;;;;4.68;2.40;;;6.40;68.50;;;;;;4991815;28;20040;-74
2023/01/08 03:46:53;;;;;;;6.50;3.50;;;6.50;68.20;;;;;;4991789;28;20035;-74
2023/01/08 03:49:21;;;;;;;5.43;3.20;;;6.50;68.00;;;;;;4991903;28;20055;-74
2023/01/08 03:51:46;;;;;;;3.55;2.40;;;6.50;68.00;;;;;;4991612;28;20072;-74
2023/01/08 03:54:15;;;;;;;5.68;2.80;;;6.50;68.10;;;;;;4991961;28;20544;-74
2023/01/08 03:56:41;;;;;;;4.05;2.58;;;6.50;68.10;;;;;;4991858;28;20026;-74
2023/01/08 03:59:07;;;;;;;5.13;2.95;;;6.50;68.10;;;;;;4974436;28;20487;-74
2023/01/08 04:01:33;;;;;;;4.95;3.17;;;6.50;68.20;;;;;;4991645;28;20018;-75
2023/01/08 04:03:58;;;;;;;4.75;3.22;;;6.50;68.30;;;;;;4991730;28;20034;-74
2023/01/08 04:06:24;;;;;;;5.80;3.47;;;6.50;68.30;;;;;;4991742;28;20030;-75
2023/01/08 04:08:50;;;;;;;6.82;3.53;;;6.50;68.50;;;;;;4991787;28;20030;-75
2023/01/08 04:11:15;;;;;;;5.78;3.55;;;6.50;68.80;;;;;;4990384;28;20041;-75
2023/01/08 04:13:41;;;;;;;4.15;3.30;;;6.50;69.00;;;;;;4991644;28;20419;-75
2023/01/08 04:16:07;;;;;;;5.50;3.70;;;6.50;69.00;;;;;;4991557;28;20467;-77
2023/01/08 04:18:33;;;;;;;6.05;4.40;;;6.40;69.10;;;;;;4991412;28;20402;-74
2023/01/08 04:20:58;;;;;;;6.82;3.95;;;6.40;69.20;;;;;;4991599;28;20383;-78
2023/01/08 04:23:25;;;;;;;5.03;3.70;;;6.30;69.40;;;;;;4991597;28;20034;-78
2023/01/08 04:25:51;;;;;;;5.72;3.40;;;6.30;69.70;;;;;;4991460;28;20068;-74
2023/01/08 04:28:16;;;;;;;6.75;4.00;;;6.30;69.80;;;;;;4991292;28;20503;-74
2023/01/08 04:30:42;;;;;;;5.28;3.08;;;6.30;70.00;;;;;;4991576;28;20034;-74
2023/01/08 04:33:07;;;;;;;5.43;3.55;;;6.30;70.00;;;;;;4991570;28;20080;-74
2023/01/08 04:35:33;;;;;;;5.22;3.80;;;6.30;70.30;;;;;;5000702;28;20026;-75
2023/01/08 04:37:58;;;;;;;5.93;4.05;;;6.30;70.70;;;;;;4993721;28;20484;-74
2023/01/08 04:40:24;;;;;;;6.25;3.90;;;6.20;71.30;;;;;;4994380;28;20038;-74
2023/01/08 04:42:49;;;;;;;5.72;3.42;;;6.20;71.60;;;;;;4992329;28;20018;-74
2023/01/08 04:45:15;;;;;;;7.07;4.00;;;6.30;71.60;;;;;;4990059;28;20095;-75
2023/01/08 04:47:41;;;;;;;7.97;4.30;;;6.30;72.00;;;;;;4991081;28;20105;-75
2023/01/08 04:50:07;;;;;;;4.53;2.50;;;6.30;72.20;;;;;;4990954;28;20033;-74
2023/01/08 04:52:32;;;;;;;7.10;2.85;;;6.50;73.60;;;;;;4990978;28;20055;-74
2023/01/08 04:54:58;;;;;;;4.25;2.60;;;6.80;72.90;;;;;;4990774;28;20030;-74
2023/01/08 04:57:23;;;;;;;3.20;1.65;;;7.10;72.50;;;;;;4990924;28;20034;-74
2023/01/08 04:59:49;;;;;;;3.45;1.92;;;7.40;71.40;;;;;;4990724;28;20513;-75
2023/01/08 05:02:14;;;;;;;3.28;1.45;;;7.60;70.40;;;;;;4990890;28;20026;-74
2023/01/08 05:04:40;;;;;;;4.15;1.65;;;7.90;69.80;;;;;;4990691;28;20034;-74
2023/01/08 05:07:06;;;;;;;1.23;1.13;;;8.10;68.90;;;;;;4990853;28;20475;-75
2023/01/08 05:09:32;;;;;;;3.55;1.85;;;8.20;68.50;;;;;;4990760;28;20029;-77
2023/01/08 05:11:58;;;;;;;1.52;1.23;;;8.20;68.40;;;;;;4990870;28;20437;-76
2023/01/08 05:14:23;;;;;;;2.33;1.50;;;8.30;68.10;;;;;;4973205;28;20497;-77
2023/01/08 05:16:49;;;;;;;2.97;1.40;;;8.30;68.40;;;;;;4997347;28;20105;-74
2023/01/08 05:19:15;;;;;;;1.73;1.33;;;8.30;68.20;;;;;;5072698;28;20089;-74
2023/01/08 05:21:40;;;;;;;1.55;1.30;;;8.30;68.20;;;;;;5072635;28;20427;-74
2023/01/08 05:24:08;;;;;;;2.35;1.58;;;8.30;68.50;;;;;;5075930;28;20046;-73
2023/01/08 05:26:33;;;;;;;3.78;2.05;;;8.40;68.30;;;;;;5076793;28;20040;-73
2023/01/08 05:28:59;;;;;;;2.45;1.60;;;8.40;68.40;;;;;;5076682;28;20080;-73
2023/01/08 05:31:25;;;;;;;3.38;1.90;;;8.40;68.90;;;;;;5076348;28;20162;-73
2023/01/08 05:33:50;;;;;;;2.90;1.77;;;8.20;69.60;;;;;;5076632;28;20039;-77
2023/01/08 05:36:16;;;;;;;4.10;1.70;;;8.10;70.50;;;;;;5076671;28;20021;-76
2023/01/08 05:38:41;;;;;;;3.28;1.83;;;8.10;71.10;;;;;;5076585;28;20032;-78
2023/01/08 05:41:08;;;;;;;3.40;1.63;;;8.00;71.40;;;;;;5075095;28;20029;-78
2023/01/08 05:43:34;;;;;;;3.72;2.53;;;8.00;71.90;;;;;;5076498;28;20362;-78
2023/01/08 05:46:01;;;;;;;1.70;1.08;;;8.00;71.90;;;;;;5076458;28;20509;-78
2023/01/08 05:48:27;;;;;;;1.58;1.10;;;8.00;71.60;;;;;;5076317;28;20039;-79
2023/01/08 05:50:53;;;;;;;1.98;1.17;;;8.00;71.40;;;;;;5076267;28;20029;-78
2023/01/08 05:53:19;;;;;;;1.33;0.82;;;7.90;71.30;;;;;;5076086;28;20455;-76
2023/01/08 05:55:44;;;;;;;0.90;0.80;;;8.00;71.00;;;;;;5076200;28;20027;-75
2023/01/08 05:58:10;;;;;;;1.25;1.02;;;8.00;70.60;;;;;;5075830;28;20062;-74
2023/01/08 06:00:36;;;;;;;1.15;0.80;;;8.10;70.60;;;;;;5076274;28;20020;-74
2023/01/08 06:03:02;;;;;;;1.98;0.90;;;8.10;71.00;;;;;;5076189;28;20086;-74
2023/01/08 06:05:29;;;;;;;1.27;0.88;;;8.00;72.70;;;;;;5076257;28;20024;-74
2023/01/08 06:07:55;;;;;;;1.20;0.60;;;8.00;72.80;;;;;;5076011;28;20503;-77
2023/01/08 06:10:20;;;;;;;2.67;0.57;;;8.10;72.70;;;;;;5076056;28;20012;-74
2023/01/08 06:12:46;;;;;;;1.58;0.80;;;8.10;72.50;;;;;;5075897;28;20036;-74
2023/01/08 06:15:12;;;;;;;0.82;0.60;;;8.20;72.40;;;;;;5075828;28;20017;-74
2023/01/08 06:17:37;;;;;;;1.98;0.57;;;8.20;73.00;;;;;;5057931;28;20029;-76
2023/01/08 06:20:03;;;;;;;1.95;0.60;;;8.10;73.60;;;;;;5075648;28;20033;-74
2023/01/08 06:22:29;;;;;;;0.90;0.60;;;8.10;74.40;;;;;;5075809;28;20028;-74
2023/01/08 06:24:55;;;;;;;2.45;0.60;;;8.10;73.90;;;;;;5075670;28;20028;-75
2023/01/08 06:27:20;;;;;;;2.63;0.82;;;8.10;74.60;;;;;;5075718;28;20098;-76
2023/01/08 06:29:46;;;;;;;1.00;0.80;;;8.00;74.90;;;;;;5075737;28;20026;-76
2023/01/08 06:32:11;;;;;;;0.65;0.52;;;8.00;75.40;;;;;;5075663;28;20027;-75
2023/01/08 06:34:37;;;;;;;2.45;0.90;;;8.00;75.30;;;;;;5056519;28;20021;-75
2023/01/08 06:37:02;;;;;;;2.45;1.08;;;8.00;75.30;;;;;;5075560;28;20358;-77
2023/01/08 06:39:28;;;;;;;1.80;0.50;;;8.00;74.50;;;;;;5075014;28;20043;-77
2023/01/08 06:41:54;;;;;;;1.02;0.80;;;8.00;74.30;;;;;;5075360;28;20496;-75
2023/01/08 06:44:20;;;;;;;2.40;0.70;;;8.00;75.20;;;;;;5075437;28;20020;-76
2023/01/08 06:46:46;;;;;;;1.67;0.73;;;8.00;74.80;;;;;;5075438;28;20020;-75
2023/01/08 06:49:12;;;;;;;1.48;0.57;;;8.00;73.70;;;;;;5075048;28;20024;-76
2023/01/08 06:51:38;;;;;;;2.85;0.75;;;8.00;74.20;;;;;;5073587;28;20431;-77
2023/01/08 06:54:03;;;;;;;0.60;0.60;;;8.00;74.70;;;;;;5075262;28;20029;-75
2023/01/08 06:56:29;;;;;;;1.83;0.70;;;8.00;75.10;;;;;;5075386;28;20024;-73
2023/01/08 06:58:55;;;;;;;1.83;0.75;;;8.00;74.60;;;;;;5074962;28;20037;-74
2023/01/08 07:01:21;;;;;;;2.10;0.93;;;7.90;75.70;;;;;;5075040;28;20020;-74
2023/01/08 07:03:47;;;;;;;1.15;1.02;;;7.90;76.40;;;;;;5074979;28;20082;-75
2023/01/08 07:06:18;;;;;;;1.58;0.80;;;7.90;76.50;;;;;;5074756;28;20480;-73
2023/01/08 07:08:44;;;;;;;0.85;0.70;;;7.80;76.60;;;;;;5074717;28;20036;-74
2023/01/08 07:11:09;;;;;;;1.23;0.80;;;7.80;76.60;;;;;;5075230;28;20517;-73
2023/01/08 07:13:35;;;;;;;0.88;0.60;;;7.80;76.30;;;;;;5077324;28;20031;-73
2023/01/08 07:16:06;;;;;;;1.33;0.77;;;7.90;75.70;;;;;;5097471;28;20056;-75
2023/01/08 07:18:31;;;;;;;1.35;1.13;;;7.80;77.80;;;;;;5097942;28;20009;-76
2023/01/08 07:20:57;;;;;;;2.30;0.80;;;7.80;77.40;;;;;;5076309;28;20024;-76
2023/01/08 07:23:22;;;;;;;1.08;0.80;;;7.80;77.90;;;;;;5091958;28;20036;-77
2023/01/08 07:25:48;;;;;;;1.17;0.95;;;7.70;77.80;;;;;;5075817;28;20020;-76
2023/01/08 07:28:13;;;;;;;1.70;1.02;;;7.80;77.80;;;;;;5074433;28;20035;-74
2023/01/08 07:30:39;;;;;;;2.38;1.17;;;7.70;77.30;;;;;;5074594;28;20059;-74
2023/01/08 07:33:05;;;;;;;1.35;0.95;;;7.70;78.00;;;;;;5074536;28;20024;-74
2023/01/08 07:35:30;;;;;;;1.85;0.85;;;7.70;76.80;;;;;;5074225;28;20057;-75
2023/01/08 07:37:56;;;;;;;1.27;1.00;;;7.70;77.30;;;;;;5074611;28;20024;-74
2023/01/08 07:40:22;;;;;;;0.90;0.80;;;7.70;77.60;;;;;;5074207;28;20028;-77
2023/01/08 07:42:55;;;;;;;0.82;0.70;;;7.70;78.10;;;;;;5074172;28;20052;-74
2023/01/08 07:45:21;;;;;;;1.25;1.00;;;7.70;77.90;;;;;;5074148;28;20036;-76
2023/01/08 07:47:47;;;;;;;3.45;1.60;;;7.70;78.10;;;;;;5091925;28;20032;-75
2023/01/08 07:50:13;;;;;;;1.40;0.90;;;7.70;77.50;;;;;;5099285;28;20060;-76
2023/01/08 07:52:39;;;;;;;1.23;0.88;;;7.70;78.60;;;;;;5078435;28;20057;-76
2023/01/08 07:55:04;;;;;;;4.78;0.95;;;7.70;77.50;;;;;;5074202;28;20032;-78
2023/01/08 07:57:30;;;;;;;0.77;0.60;;;7.70;77.70;;;;;;5074762;28;20100;-77
2023/01/08 07:59:55;;;;;;;2.88;1.40;;;7.70;77.20;;;;;;5073821;28;20028;-77
2023/01/08 08:02:21;;;;;;;1.65;0.77;;;7.70;80.00;;;;;;5073891;28;20419;-78
2023/01/08 08:04:46;;;;;;;2.08;0.77;;;7.70;80.10;;;;;;5073864;28;20032;-76
2023/01/08 08:07:12;;;;;;;1.52;0.90;;;7.60;78.30;;;;;;5073932;28;20031;-77
2023/01/08 08:09:37;;;;;;;3.70;1.00;;;7.70;78.70;;;;;;5073650;28;20036;-77
2023/01/08 08:12:03;;;;;;;0.68;0.57;;;7.70;78.90;;;;;;5073630;28;20362;-76
2023/01/08 08:14:29;;;;;;;1.45;0.70;;;7.70;77.70;;;;;;5073539;28;20037;-78
2023/01/08 08:16:54;;;;;;;0.55;0.55;;;7.70;77.50;;;;;;5072277;28;20082;-77
2023/01/08 08:19:20;;;;;;;2.00;0.70;;;7.80;77.30;;;;;;5073569;28;20031;-77
2023/01/08 08:21:45;;;;;;;2.08;0.70;;;7.70;78.40;;;;;;5073866;28;20111;-76
2023/01/08 08:24:11;;;;;;;1.02;0.65;;;7.70;78.70;;;;;;5073643;28;20031;-78
2023/01/08 08:26:36;;;;;;;1.67;0.55;;;7.70;78.90;;;;;;5073658;28;20021;-77
2023/01/08 08:29:02;;;;;;;1.35;0.90;;;7.70;78.00;;;;;;5073196;28;20032;-79
2023/01/08 08:31:28;;;;;;;0.77;0.50;;;7.70;78.70;;;;;;5073230;28;20027;-78
2023/01/08 08:33:54;;;;;;;0.40;0.40;;;7.70;78.90;;;;;;5073258;28;20103;-79
2023/01/08 08:36:19;;;;;;;1.20;0.60;;;7.70;78.70;;;;;;5073008;28;20031;-76
2023/01/08 08:38:45;;;;;;;2.05;0.50;;;7.80;78.90;;;;;;5073189;28;20500;-77
2023/01/08 08:41:10;;;;;;;0.60;0.57;;;7.70;78.60;;;;;;5072795;28;20484;-78
2023/01/08 08:43:36;;;;;;;1.65;0.50;;;7.80;77.30;;;;;;5072966;28;20618;-78
2023/01/08 08:46:01;;;;;;;1.85;0.75;;;7.90;77.60;;;;;;5073043;28;20013;-79
2023/01/08 08:48:27;;;;;;;1.08;0.70;;;7.90;78.60;;;;;;5072889;28;20063;-79
2023/01/08 08:50:52;;;;;;;0.63;0.52;;;7.80;77.30;;;;;;5072707;28;20385;-79
2023/01/08 08:53:18;;;;;;;1.00;0.63;;;7.90;76.80;;;;;;5054342;28;20037;-79
2023/01/08 08:55:43;;;;;;;1.08;0.55;;;7.90;78.20;;;;;;5054925;28;20119;-80
2023/01/08 08:58:11;;;;;;;1.20;0.70;;;8.00;77.40;;;;;;5072299;28;20029;-79
2023/01/08 09:00:42;;;;;;;3.30;0.80;;;7.90;78.80;;;;;;5073042;28;20070;-78
2023/01/08 09:03:15;;;;;;;2.42;0.60;;;7.80;78.70;;;;;;5072787;28;20028;-79
2023/01/08 09:05:41;;;;;;;0.93;0.50;;;7.80;77.70;;;;;;5073064;28;20384;-80
2023/01/08 09:08:07;;;;;;;1.67;0.57;;;7.90;77.70;;;;;;5072783;28;20115;-79
2023/01/08 09:10:35;;;;;;;1.25;0.60;;;7.90;78.10;;;;;;5054802;28;20112;-79
2023/01/08 09:13:00;;;;;;;1.05;0.52;;;8.00;76.60;;;;;;5072815;28;20439;-75
2023/01/08 09:15:26;;;;;;;0.55;0.40;;;8.00;77.30;;;;;;5072815;28;20101;-79
2023/01/08 09:17:53;;;;;;;1.27;0.70;;;8.00;76.80;;;;;;5072655;28;20021;-79
2023/01/08 09:20:19;;;;;;;3.25;1.92;;;8.00;76.70;;;;;;5073072;28;20025;-79
2023/01/08 09:22:45;;;;;;;1.10;0.60;;;8.00;76.00;;;;;;5072780;28;20023;-78
2023/01/08 09:25:10;;;;;;;0.55;0.47;;;8.10;76.40;;;;;;5073057;28;20103;-79
2023/01/08 09:27:36;;;;;;;0.73;0.52;;;8.00;75.70;;;;;;5073154;28;20069;-78
2023/01/08 09:30:01;;;;;;;0.40;0.40;;;8.00;76.40;;;;;;5070488;28;20100;-73
2023/01/08 09:32:27;;;;;;;0.25;0.25;;;8.00;75.60;;;;;;5016392;28;20042;-78
2023/01/08 09:34:53;;;;;;;0.80;0.50;;;8.10;76.60;;;;;;4988888;28;20042;-79
2023/01/08 09:37:18;;;;;;;0.40;0.40;;;8.00;76.70;;;;;;4971280;28;20052;-78
2023/01/08 09:39:44;;;;;;;1.05;0.70;;;8.10;76.20;;;;;;4970969;28;20096;-79
2023/01/08 09:42:12;;;;;;;0.30;0.30;;;8.00;76.10;;;;;;4970727;28;20106;-74
2023/01/08 09:44:41;;;;;;;0.52;0.30;;;8.10;75.60;;;;;;4971039;28;20019;-78
2023/01/08 09:47:26;;;;;;;0.40;0.30;;;8.10;76.40;;;;;;4970755;28;20110;-75
2023/01/08 09:49:55;;;;;;;0.43;0.30;;;8.10;76.20;;;;;;4985365;28;20035;-74
2023/01/08 09:52:21;;;;;;;0.68;0.40;;;8.10;76.30;;;;;;5003653;28;20153;-77
2023/01/08 09:54:47;;;;;;;0.40;0.40;;;8.10;75.50;;;;;;5018535;28;20029;-76
2023/01/08 09:57:15;;;;;;;1.95;0.52;;;8.10;75.90;;;;;;5027483;28;20048;-74
2023/01/08 09:59:42;;;;;;;0.40;0.30;;;8.10;76.10;;;;;;5020757;28;20110;-74
2023/01/08 10:02:22;;;;;;;0.43;0.30;;;8.10;77.70;;;;;;5015437;28;20100;-73
2023/01/08 10:04:53;;;;;;;1.08;0.47;;;8.10;77.30;;;;;;5025116;28;20549;-77
2023/01/08 10:07:21;;;;;;;0.50;0.50;;;8.10;76.50;;;;;;5019306;28;20368;-75
2023/01/08 10:09:50;;;;;;;0.52;0.52;;;8.10;76.90;;;;;;5017737;28;20107;-73
2023/01/08 10:12:28;;;;;;;0.93;0.38;;;8.10;76.40;;;;;;5000690;28;20023;-77
2023/01/08 10:15:19;;;;;;;0.90;0.50;;;8.10;76.60;;;;;;5016602;28;20058;-74
2023/01/08 10:18:06;;;;;;;0.40;0.32;;;8.20;76.60;;;;;;5002938;28;20089;-75
2023/01/08 10:20:33;;;;;;;0.82;0.50;;;8.20;75.70;;;;;;5028577;28;20031;-74
2023/01/08 10:23:15;;;;;;;0.22;0.22;;;8.20;75.40;;;;;;5022026;28;20015;-74
2023/01/08 10:25:54;;;;;;;1.38;0.60;;;8.30;75.20;;;;;;5022742;28;20031;-73
2023/01/08 10:28:22;;;;;;;0.40;0.40;;;8.30;75.20;;;;;;5022515;28;20026;-76
2023/01/08 10:30:50;;;;;;;0.73;0.70;;;8.40;75.40;;;;;;5026824;28;20050;-74
2023/01/08 10:33:25;;;;;;;1.23;0.60;;;8.40;75.00;;;;;;5040516;28;20034;-75
2023/01/08 10:36:00;;;;;;;0.65;0.55;;;8.40;74.80;;;;;;5040065;28;20023;-74
2023/01/08 10:38:48;;;;;;;1.07;0.60;;;8.40;74.80;;;;;;5054081;28;20039;-74
2023/01/08 10:41:14;;;;;;;0.75;0.40;;;8.40;75.70;;;;;;5021015;28;20027;-73
2023/01/08 10:43:49;;;;;;;0.57;0.43;;;8.40;74.80;;;;;;5023638;28;20102;-75
2023/01/08 10:46:23;;;;;;;1.08;0.60;;;8.40;74.50;;;;;;5016384;28;20019;-74
2023/01/08 10:48:55;;;;;;;1.13;0.50;;;8.40;74.10;;;;;;5018284;28;20137;-74
2023/01/08 10:51:24;;;;;;;0.85;0.60;;;8.40;75.00;;;;;;5023285;28;20066;-74
2023/01/08 10:53:50;;;;;;;0.80;0.52;;;8.40;74.50;;;;;;5007353;28;20045;-74
2023/01/08 10:56:25;;;;;;;1.95;0.80;;;8.60;74.20;;;;;;5000176;28;20482;-73
2023/01/08 10:58:51;;;;;;;0.63;0.38;;;8.60;73.70;;;;;;4997723;28;20106;-74
2023/01/08 11:01:30;;;;;;;1.27;0.43;;;8.60;73.80;;;;;;5006076;28;20029;-78
2023/01/08 11:04:04;;;;;;;1.10;0.50;;;8.60;73.30;;;;;;4997048;28;20023;-77
2023/01/08 11:06:37;;;;;;;0.85;0.35;;;8.60;73.70;;;;;;4997995;28;20503;-74
2023/01/08 11:09:24;;;;;;;0.47;0.45;;;8.60;73.60;;;;;;5001621;28;20041;-75
2023/01/08 11:11:50;;;;;;;0.57;0.40;;;8.50;74.10;;;;;;5007718;28;20097;-75
2023/01/08 11:14:34;;;;;;;0.73;0.32;;;8.50;74.30;;;;;;4999310;28;20106;-75
2023/01/08 11:17:01;;;;;;;0.88;0.60;;;8.50;73.70;;;;;;5000376;28;20027;-76
2023/01/08 11:19:34;;;;;;;0.57;0.40;;;8.60;73.70;;;;;;4998553;28;20023;-74
2023/01/08 11:22:02;;;;;;;0.73;0.30;;;8.60;73.90;;;;;;4999555;28;20106;-74
2023/01/08 11:24:29;;;;;;;0.60;0.43;;;8.60;73.20;;;;;;4997976;28;20049;-75
2023/01/08 11:27:09;;;;;;;1.02;0.30;;;8.60;73.40;;;;;;4978226;28;20036;-75
2023/01/08 11:29:43;;;;;;;0.30;0.30;;;8.60;72.80;;;;;;4952225;28;20053;-75
2023/01/08 11:32:23;;;;;;;0.30;0.30;;;8.60;72.40;;;;;;4953334;28;20027;-75
2023/01/08 11:35:02;;;;;;;0.43;0.30;;;8.70;72.40;;;;;;4953110;29;20110;-72
2023/01/08 11:37:34;;;;;;;1.52;0.22;;;8.70;72.90;;;;;;4953447;29;20502;-72
2023/01/08 11:40:00;;;;;;;0.38;0.25;;;8.90;71.50;;;;;;4953465;28;20028;-73
2023/01/08 11:42:50;;;;;;;0.77;0.60;;;9.00;70.50;;;;;;4953137;29;20438;-77
2023/01/08 11:45:39;;;;;;;0.65;0.30;;;9.20;71.30;;;;;;4967551;28;20021;-78
2023/01/08 11:48:29;;;;;;;0.20;0.20;;;9.10;69.50;;;;;;5042805;28;20044;-80
2023/01/08 11:51:17;;;;;;;0.60;0.40;;;9.20;68.80;;;;;;5052736;28;20041;-75
2023/01/08 11:53:50;;;;;;;0.80;0.45;;;9.20;69.50;;;;;;5071199;28;20405;-79
2023/01/08 11:56:53;;;;;;;0.75;0.30;;;9.40;70.10;;;;;;5073983;28;20024;-77
2023/01/08 11:59:41;;;;;;;0.45;0.45;;;9.50;68.20;;;;;;5073873;28;20044;-80
2023/01/08 12:02:28;;;;;;;0.40;0.30;;;9.50;68.80;;;;;;5073604;28;20021;-77
2023/01/08 12:05:13;;;;;;;0.25;0.20;;;9.50;67.90;;;;;;5073616;28;20052;-75
2023/01/08 12:07:48;;;;;;;1.67;0.80;;;9.50;68.00;;;;;;5073734;28;20551;-75
2023/01/08 12:10:28;;;;;;;0.25;0.25;;;9.80;68.40;;;;;;5073555;28;20063;-74
2023/01/08 12:13:38;;;;;;;0.63;0.30;;;9.90;65.40;;;;;;5055515;28;20518;-74
2023/01/08 12:16:36;;;;;;;0.50;0.20;;;9.80;66.00;;;;;;5073511;28;20020;-74
2023/01/08 12:19:17;;;;;;;1.45;0.47;;;9.80;65.60;;;;;;5073525;28;20097;-78
2023/01/08 12:22:16;;;;;;;0.20;0.20;;;9.90;67.50;;;;;;5073434;28;20024;-76
2023/01/08 12:25:01;;;;;;;0.20;0.13;;;9.90;65.30;;;;;;5073504;28;20025;-77
2023/01/08 12:27:48;;;;;;;0.35;0.30;;;9.70;65.70;;;;;;5073247;28;20016;-77
2023/01/08 12:30:45;;;;;;;0.28;0.28;;;9.60;67.30;;;;;;5073063;28;20426;-77
2023/01/08 12:33:37;;;;;;;0.20;0.20;;;9.70;67.90;;;;;;5072443;28;20024;-77
2023/01/08 12:36:09;;;;;;;0.57;0.40;;;9.60;68.20;;;;;;5067727;28;20036;-77
2023/01/08 12:38:43;;;;;;;3.50;0.73;;;9.40;68.40;;;;;;5055491;28;20070;-78
2023/01/08 12:41:12;;;;;;;0.73;0.50;;;9.20;69.50;;;;;;5073277;28;20021;-77
2023/01/08 12:44:00;;;;;;;0.63;0.50;;;9.10;71.00;;;;;;5073120;28;20422;-77
2023/01/08 12:46:30;;;;;;;0.65;0.47;;;9.00;71.40;;;;;;5073036;28;20051;-76
2023/01/08 12:48:56;;;;;;;1.35;0.50;;;9.10;71.40;;;;;;5073058;28;20044;-76
2023/01/08 12:51:44;;;;;;;1.17;0.50;;;9.10;71.40;;;;;;5073212;28;20120;-76
2023/01/08 12:54:31;;;;;;;1.45;0.57;;;9.10;71.40;;;;;;5073616;28;20404;-78
2023/01/08 12:57:15;;;;;;;2.83;0.60;;;9.00;71.80;;;;;;5073438;28;20066;-78
2023/01/08 12:59:51;;;;;;;1.58;0.73;;;9.10;72.40;;;;;;5073303;28;20033;-80
2023/01/08 13:02:33;;;;;;;0.90;0.50;;;9.20;71.70;;;;;;5072847;28;20020;-78
2023/01/08 13:05:18;;;;;;;3.67;0.70;;;9.20;70.90;;;;;;5072794;28;20418;-76
2023/01/08 13:07:48;;;;;;;1.25;0.57;;;9.50;75.50;;;;;;5073912;28;20027;-92
2023/01/08 13:10:35;;;;;;;1.58;0.80;;;9.50;70.20;;;;;;5076239;28;20043;-93